Portada
METAR-TAF:

METAR-TAF

Aeroports :

Portland International Jetport

Portland, Maine, Estats Units d'Amèrica

latitud: 43-38-32N, longitud: 070-18-16W, altitud: 22 m

Observació

L'informe es va fer fa 50 minuts, a les 05:51 UTC
Vent 3 kt del Oest/Sud-Oest
Temperatura 2°C
Humitat 93%
Pressió 1015 hPa
Visibilitat: 16.1 km
Cel clar

METAR: KPWM 290551Z AUTO 25003KT 10SM CLR 02/01 A2997 RMK AO2 SLP150 I6000 T00170006 10028 20000 51008

Hora: 01:41 (06:41 UTC)

Pronòstic

L'informe es va fer fa 1 hora i 18 minuts, a les 05:23 UTC
Pronòstic vàlid del 29 a les 06 UTC al 30 a les 06 UTC
Vent 4 kt del Oest
Visibilitat: 10 km
Escasses núvols a una alçada de 20000 ft
A partir de les 29 a les 1700 UTC
Vent 4 kt del Sud-Oest
Visibilitat: 10 km
Núvols disperses a una alçada de 25000 ft

TAF: KPWM 290523Z 2906/3006 28004KT P6SM FEW200 FM291700 22004KT P6SM SCT250

Observacions i pronòstics meteorològics de més de 4000 aeroports (METAR i TAF).

Les estacions disponibles són els punts grocs i vermells al mapa.

Posi el ratolí al punt desitjat per veure el nom de l'estació.

Feu clic per veure les observacions i els pronòstics meteorològics.

Per canviar el mapa: feu clic els botons verds amb una creu de color negre per apropar; al botó verd amb un guió per allunyar la imatge; o en les fletxes verdes per a mapes adjacents.


METAR-TAF: